Overview Statistics Trail Chart Weather Telemetry Raw packets
 

This is the latest recevied weather packets stored in our database for station/object Dunnningn. If no packets are shown the sender has not sent any weather packets the latest 10 day(s).

<< 1 2 3 4 5 6 >>
Time Temp. Humidity Pressure Rain* Wind** Luminosity Snow
1788553931 21.67° C 64% 1016.4 hPa 0 mm - - -
1788552130 22.22° C 61% 1016.3 hPa 0 mm - - -
1788550330 23.33° C 58% 1016.3 hPa 0 mm - - -
1788548531 24.44° C 55% 1016 hPa 0 mm - - -
1788546731 25° C 53% 1015.7 hPa 0 mm - - -
1788544931 26.11° C 51% 1015.4 hPa 0 mm - - -
1788543130 26.67° C 49% 1015.3 hPa 0 mm - - -
1788541344 27.78° C 47% 1015.4 hPa 0 mm - - -
1788539531 28.89° C 45% 1015.3 hPa 0 mm - - -
1788537731 29.44° C 42% 1015.4 hPa 0 mm - - -
1788535931 30° C 41% 1015.4 hPa 0 mm - - -
1788534131 30.56° C 39% 1015.4 hPa 0 mm - - -
1788532330 30.56° C 39% 1015.7 hPa 0 mm - - -
1788530531 30.56° C 37% 1015.9 hPa 0 mm - - -
1788528730 30.56° C 36% 1016.1 hPa 0 mm - - -
1788526930 30.56° C 40% 1016.5 hPa 0 mm - - -
1788525130 30.56° C 38% 1017 hPa 0 mm - - -
1788523331 30.56° C 39% 1017.1 hPa 0 mm - - -
1788521530 30° C 39% 1017.4 hPa 0 mm - - -
1788519731 29.44° C 40% 1017.7 hPa 0 mm - - -
1788517930 28.33° C 44% 1018.3 hPa 0 mm - - -
1788516130 27.22° C 45% 1018.6 hPa 0 mm - - -
1788514330 26.67° C 46% 1018.9 hPa 0 mm - - -
1788512530 25° C 51% 1019.3 hPa 0 mm - - -
1788510730 23.33° C 58% 1019.4 hPa 0 mm - - -

* Rain since midnight (hover to see other rain measurements)
** Current wind speed in m/s (hover to see current wind gust speed)